sensor_id;sensor_type;location;lat;lon;timestamp;temperature;humidity
54578;DHT22;40474;49.330;8.130;2022-08-14T00:01:44;22.60;50.80
54578;DHT22;40474;49.330;8.130;2022-08-14T00:04:21;22.60;50.80
54578;DHT22;40474;49.330;8.130;2022-08-14T00:07:04;22.50;50.70
54578;DHT22;40474;49.330;8.130;2022-08-14T00:09:32;22.40;50.80
54578;DHT22;40474;49.330;8.130;2022-08-14T00:12:05;22.40;52.40
54578;DHT22;40474;49.330;8.130;2022-08-14T00:14:50;22.30;51.80
54578;DHT22;40474;49.330;8.130;2022-08-14T00:17:21;22.20;51.80
54578;DHT22;40474;49.330;8.130;2022-08-14T00:19:48;22.20;53.10
54578;DHT22;40474;49.330;8.130;2022-08-14T00:22:17;22.10;54.60
54578;DHT22;40474;49.330;8.130;2022-08-14T00:25:05;22.20;54.20
54578;DHT22;40474;49.330;8.130;2022-08-14T00:27:32;22.20;54.70
54578;DHT22;40474;49.330;8.130;2022-08-14T00:30:07;22.30;56.10
54578;DHT22;40474;49.330;8.130;2022-08-14T00:32:39;22.30;54.10
54578;DHT22;40474;49.330;8.130;2022-08-14T00:35:21;22.30;54.50
54578;DHT22;40474;49.330;8.130;2022-08-14T00:38:08;22.30;55.50
54578;DHT22;40474;49.330;8.130;2022-08-14T00:40:35;22.20;54.00
54578;DHT22;40474;49.330;8.130;2022-08-14T00:43:02;22.20;55.60
54578;DHT22;40474;49.330;8.130;2022-08-14T00:45:29;22.10;55.80
54578;DHT22;40474;49.330;8.130;2022-08-14T00:47:56;22.10;55.30
54578;DHT22;40474;49.330;8.130;2022-08-14T00:50:25;22.00;56.30
54578;DHT22;40474;49.330;8.130;2022-08-14T00:52:54;22.00;56.70
54578;DHT22;40474;49.330;8.130;2022-08-14T00:55:21;21.90;56.80
54578;DHT22;40474;49.330;8.130;2022-08-14T00:57:49;21.90;56.10
54578;DHT22;40474;49.330;8.130;2022-08-14T01:00:36;21.90;57.30
54578;DHT22;40474;49.330;8.130;2022-08-14T01:03:22;22.00;56.80
54578;DHT22;40474;49.330;8.130;2022-08-14T01:05:51;22.00;57.30
54578;DHT22;40474;49.330;8.130;2022-08-14T01:08:18;22.00;57.00
54578;DHT22;40474;49.330;8.130;2022-08-14T01:11:06;21.90;57.70
54578;DHT22;40474;49.330;8.130;2022-08-14T01:13:36;21.90;57.60
54578;DHT22;40474;49.330;8.130;2022-08-14T01:16:10;21.80;57.70
54578;DHT22;40474;49.330;8.130;2022-08-14T01:18:40;21.80;58.00
54578;DHT22;40474;49.330;8.130;2022-08-14T01:21:35;21.70;58.80
54578;DHT22;40474;49.330;8.130;2022-08-14T01:24:12;21.60;58.40
54578;DHT22;40474;49.330;8.130;2022-08-14T01:26:54;21.50;59.90
54578;DHT22;40474;49.330;8.130;2022-08-14T01:29:21;21.40;59.00
54578;DHT22;40474;49.330;8.130;2022-08-14T01:32:08;21.40;59.40
54578;DHT22;40474;49.330;8.130;2022-08-14T01:34:36;21.40;60.90
54578;DHT22;40474;49.330;8.130;2022-08-14T01:37:22;21.30;60.50
54578;DHT22;40474;49.330;8.130;2022-08-14T01:39:51;21.40;59.30
54578;DHT22;40474;49.330;8.130;2022-08-14T01:42:20;21.40;59.90
54578;DHT22;40474;49.330;8.130;2022-08-14T01:44:57;21.40;60.00
54578;DHT22;40474;49.330;8.130;2022-08-14T01:47:24;21.40;60.40
54578;DHT22;40474;49.330;8.130;2022-08-14T01:49:59;21.30;60.10
54578;DHT22;40474;49.330;8.130;2022-08-14T01:52:31;21.30;61.40
54578;DHT22;40474;49.330;8.130;2022-08-14T01:55:18;21.20;61.70
54578;DHT22;40474;49.330;8.130;2022-08-14T01:57:45;21.10;61.90
54578;DHT22;40474;49.330;8.130;2022-08-14T02:00:31;21.10;60.10
54578;DHT22;40474;49.330;8.130;2022-08-14T02:03:02;21.00;62.60
54578;DHT22;40474;49.330;8.130;2022-08-14T02:05:32;20.90;62.30
54578;DHT22;40474;49.330;8.130;2022-08-14T02:08:04;20.90;63.00
54578;DHT22;40474;49.330;8.130;2022-08-14T02:10:36;20.80;63.40
54578;DHT22;40474;49.330;8.130;2022-08-14T02:13:13;20.80;63.20
54578;DHT22;40474;49.330;8.130;2022-08-14T02:15:41;20.90;62.20
54578;DHT22;40474;49.330;8.130;2022-08-14T02:18:09;20.90;63.40
54578;DHT22;40474;49.330;8.130;2022-08-14T02:20:37;20.90;63.60
54578;DHT22;40474;49.330;8.130;2022-08-14T02:23:05;20.90;62.00
54578;DHT22;40474;49.330;8.130;2022-08-14T02:25:33;20.90;64.00
54578;DHT22;40474;49.330;8.130;2022-08-14T02:28:00;20.90;63.10
54578;DHT22;40474;49.330;8.130;2022-08-14T02:30:47;20.90;63.50
54578;DHT22;40474;49.330;8.130;2022-08-14T02:33:18;20.90;64.10
54578;DHT22;40474;49.330;8.130;2022-08-14T02:35:44;20.80;64.80
54578;DHT22;40474;49.330;8.130;2022-08-14T02:38:21;20.80;64.00
54578;DHT22;40474;49.330;8.130;2022-08-14T02:40:56;20.80;64.40
54578;DHT22;40474;49.330;8.130;2022-08-14T02:43:23;20.80;65.20
54578;DHT22;40474;49.330;8.130;2022-08-14T02:46:02;20.80;65.70
54578;DHT22;40474;49.330;8.130;2022-08-14T02:48:29;20.70;65.90
54578;DHT22;40474;49.330;8.130;2022-08-14T02:51:21;20.80;64.70
54578;DHT22;40474;49.330;8.130;2022-08-14T02:53:48;20.70;66.30
54578;DHT22;40474;49.330;8.130;2022-08-14T02:56:17;20.70;66.50
54578;DHT22;40474;49.330;8.130;2022-08-14T02:59:07;20.60;65.50
54578;DHT22;40474;49.330;8.130;2022-08-14T03:01:35;20.60;66.60
54578;DHT22;40474;49.330;8.130;2022-08-14T03:04:15;20.60;67.40
54578;DHT22;40474;49.330;8.130;2022-08-14T03:06:46;20.50;68.10
54578;DHT22;40474;49.330;8.130;2022-08-14T03:09:24;20.60;67.70
54578;DHT22;40474;49.330;8.130;2022-08-14T03:12:07;20.60;68.20
54578;DHT22;40474;49.330;8.130;2022-08-14T03:14:35;20.60;68.20
54578;DHT22;40474;49.330;8.130;2022-08-14T03:17:07;20.70;67.90
54578;DHT22;40474;49.330;8.130;2022-08-14T03:19:35;20.60;68.60
54578;DHT22;40474;49.330;8.130;2022-08-14T03:22:02;20.60;68.80
54578;DHT22;40474;49.330;8.130;2022-08-14T03:24:34;20.60;68.40
54578;DHT22;40474;49.330;8.130;2022-08-14T03:27:04;20.60;68.40
54578;DHT22;40474;49.330;8.130;2022-08-14T03:29:32;20.50;67.80
54578;DHT22;40474;49.330;8.130;2022-08-14T03:32:00;20.50;69.00
54578;DHT22;40474;49.330;8.130;2022-08-14T03:34:28;20.50;69.90
54578;DHT22;40474;49.330;8.130;2022-08-14T03:37:16;20.40;68.70
54578;DHT22;40474;49.330;8.130;2022-08-14T03:40:03;20.40;70.40
54578;DHT22;40474;49.330;8.130;2022-08-14T03:42:36;20.30;71.10
54578;DHT22;40474;49.330;8.130;2022-08-14T03:45:05;20.20;70.60
54578;DHT22;40474;49.330;8.130;2022-08-14T03:47:51;20.20;71.70
54578;DHT22;40474;49.330;8.130;2022-08-14T03:50:23;20.10;72.60
54578;DHT22;40474;49.330;8.130;2022-08-14T03:52:57;20.10;71.30
54578;DHT22;40474;49.330;8.130;2022-08-14T03:55:26;20.20;71.60
54578;DHT22;40474;49.330;8.130;2022-08-14T03:57:55;20.10;72.10
54578;DHT22;40474;49.330;8.130;2022-08-14T04:00:22;20.10;71.80
54578;DHT22;40474;49.330;8.130;2022-08-14T04:03:09;20.10;73.10
54578;DHT22;40474;49.330;8.130;2022-08-14T04:05:38;20.10;73.80
54578;DHT22;40474;49.330;8.130;2022-08-14T04:08:15;20.00;74.00
54578;DHT22;40474;49.330;8.130;2022-08-14T04:10:55;20.00;74.10
54578;DHT22;40474;49.330;8.130;2022-08-14T04:13:23;20.00;73.30
54578;DHT22;40474;49.330;8.130;2022-08-14T04:15:53;20.00;74.10
54578;DHT22;40474;49.330;8.130;2022-08-14T04:18:31;20.00;74.80
54578;DHT22;40474;49.330;8.130;2022-08-14T04:20:59;20.00;74.60
54578;DHT22;40474;49.330;8.130;2022-08-14T04:23:26;20.00;74.50
54578;DHT22;40474;49.330;8.130;2022-08-14T04:25:59;20.00;75.80
54578;DHT22;40474;49.330;8.130;2022-08-14T04:28:26;20.00;76.50
54578;DHT22;40474;49.330;8.130;2022-08-14T04:31:13;20.00;76.90
54578;DHT22;40474;49.330;8.130;2022-08-14T04:33:41;20.00;77.10
54578;DHT22;40474;49.330;8.130;2022-08-14T04:36:09;20.00;75.40
54578;DHT22;40474;49.330;8.130;2022-08-14T04:38:43;20.00;77.30
54578;DHT22;40474;49.330;8.130;2022-08-14T04:41:28;20.00;77.00
54578;DHT22;40474;49.330;8.130;2022-08-14T04:44:15;20.10;77.50
54578;DHT22;40474;49.330;8.130;2022-08-14T04:47:02;20.10;77.10
54578;DHT22;40474;49.330;8.130;2022-08-14T04:49:49;20.10;77.60
54578;DHT22;40474;49.330;8.130;2022-08-14T04:52:23;20.10;77.20
54578;DHT22;40474;49.330;8.130;2022-08-14T04:54:50;20.20;77.80
54578;DHT22;40474;49.330;8.130;2022-08-14T04:57:16;20.20;78.20
54578;DHT22;40474;49.330;8.130;2022-08-14T04:59:44;20.30;77.20
54578;DHT22;40474;49.330;8.130;2022-08-14T05:02:11;20.30;78.40
54578;DHT22;40474;49.330;8.130;2022-08-14T05:04:39;20.30;78.90
54578;DHT22;40474;49.330;8.130;2022-08-14T05:07:22;20.40;78.90
54578;DHT22;40474;49.330;8.130;2022-08-14T05:10:09;20.40;78.70
54578;DHT22;40474;49.330;8.130;2022-08-14T05:12:41;20.50;78.20
54578;DHT22;40474;49.330;8.130;2022-08-14T05:15:28;20.60;78.70
54578;DHT22;40474;49.330;8.130;2022-08-14T05:17:58;20.80;78.20
54578;DHT22;40474;49.330;8.130;2022-08-14T05:20:43;20.90;78.20
54578;DHT22;40474;49.330;8.130;2022-08-14T05:23:32;21.00;77.90
54578;DHT22;40474;49.330;8.130;2022-08-14T05:26:03;21.20;77.80
54578;DHT22;40474;49.330;8.130;2022-08-14T05:28:32;21.30;77.00
54578;DHT22;40474;49.330;8.130;2022-08-14T05:31:03;21.50;77.40
54578;DHT22;40474;49.330;8.130;2022-08-14T05:33:33;21.80;76.90
54578;DHT22;40474;49.330;8.130;2022-08-14T05:36:01;22.30;75.10
54578;DHT22;40474;49.330;8.130;2022-08-14T05:38:29;22.70;73.30
54578;DHT22;40474;49.330;8.130;2022-08-14T05:41:01;23.40;71.60
54578;DHT22;40474;49.330;8.130;2022-08-14T05:43:32;24.20;69.20
54578;DHT22;40474;49.330;8.130;2022-08-14T05:46:11;24.90;66.50
54578;DHT22;40474;49.330;8.130;2022-08-14T05:48:41;25.20;64.70
54578;DHT22;40474;49.330;8.130;2022-08-14T05:51:08;25.40;63.30
54578;DHT22;40474;49.330;8.130;2022-08-14T05:53:35;25.60;62.40
54578;DHT22;40474;49.330;8.130;2022-08-14T05:56:08;25.90;61.30
54578;DHT22;40474;49.330;8.130;2022-08-14T05:58:34;26.40;57.70
54578;DHT22;40474;49.330;8.130;2022-08-14T06:01:07;26.40;54.90
54578;DHT22;40474;49.330;8.130;2022-08-14T06:03:35;26.80;54.90
54578;DHT22;40474;49.330;8.130;2022-08-14T06:06:05;27.30;53.30
54578;DHT22;40474;49.330;8.130;2022-08-14T06:08:33;27.80;51.60
54578;DHT22;40474;49.330;8.130;2022-08-14T06:11:06;28.30;50.20
54578;DHT22;40474;49.330;8.130;2022-08-14T06:13:38;28.90;48.90
54578;DHT22;40474;49.330;8.130;2022-08-14T06:16:10;29.50;48.40
54578;DHT22;40474;49.330;8.130;2022-08-14T06:18:37;29.90;46.50
54578;DHT22;40474;49.330;8.130;2022-08-14T06:21:05;30.30;45.90
54578;DHT22;40474;49.330;8.130;2022-08-14T06:23:39;30.50;45.90
54578;DHT22;40474;49.330;8.130;2022-08-14T06:26:05;31.20;44.10
54578;DHT22;40474;49.330;8.130;2022-08-14T06:28:32;31.60;43.20
54578;DHT22;40474;49.330;8.130;2022-08-14T06:30:59;31.70;43.40
54578;DHT22;40474;49.330;8.130;2022-08-14T06:33:26;31.70;42.90
54578;DHT22;40474;49.330;8.130;2022-08-14T06:36:16;31.70;42.90
54578;DHT22;40474;49.330;8.130;2022-08-14T06:38:43;32.00;42.50
54578;DHT22;40474;49.330;8.130;2022-08-14T06:41:15;32.50;41.60
54578;DHT22;40474;49.330;8.130;2022-08-14T06:43:46;32.20;41.70
54578;DHT22;40474;49.330;8.130;2022-08-14T06:46:14;32.00;41.80
54578;DHT22;40474;49.330;8.130;2022-08-14T06:48:48;32.00;42.10
54578;DHT22;40474;49.330;8.130;2022-08-14T06:51:15;32.70;41.90
54578;DHT22;40474;49.330;8.130;2022-08-14T06:53:43;32.80;40.50
54578;DHT22;40474;49.330;8.130;2022-08-14T06:56:12;32.60;41.20
54578;DHT22;40474;49.330;8.130;2022-08-14T06:58:39;32.90;40.60
54578;DHT22;40474;49.330;8.130;2022-08-14T07:01:07;33.00;40.30
54578;DHT22;40474;49.330;8.130;2022-08-14T07:03:54;32.80;40.70
54578;DHT22;40474;49.330;8.130;2022-08-14T07:06:52;32.80;41.00
54578;DHT22;40474;49.330;8.130;2022-08-14T07:09:25;32.80;41.00
54578;DHT22;40474;49.330;8.130;2022-08-14T07:11:53;33.30;40.50
54578;DHT22;40474;49.330;8.130;2022-08-14T07:14:21;33.70;39.30
54578;DHT22;40474;49.330;8.130;2022-08-14T07:16:48;33.80;39.00
54578;DHT22;40474;49.330;8.130;2022-08-14T07:19:18;33.80;38.80
54578;DHT22;40474;49.330;8.130;2022-08-14T07:21:46;34.10;38.90
54578;DHT22;40474;49.330;8.130;2022-08-14T07:24:13;34.70;38.10
54578;DHT22;40474;49.330;8.130;2022-08-14T07:26:51;34.60;37.60
54578;DHT22;40474;49.330;8.130;2022-08-14T07:29:18;34.00;38.80
54578;DHT22;40474;49.330;8.130;2022-08-14T07:31:51;33.20;40.10
54578;DHT22;40474;49.330;8.130;2022-08-14T07:34:18;33.50;39.50
54578;DHT22;40474;49.330;8.130;2022-08-14T07:37:05;33.50;40.20
54578;DHT22;40474;49.330;8.130;2022-08-14T07:39:32;33.30;39.60
54578;DHT22;40474;49.330;8.130;2022-08-14T07:42:00;34.00;39.20
54578;DHT22;40474;49.330;8.130;2022-08-14T07:44:27;35.00;38.00
54578;DHT22;40474;49.330;8.130;2022-08-14T07:47:11;35.30;37.20
54578;DHT22;40474;49.330;8.130;2022-08-14T07:49:38;35.60;37.20
54578;DHT22;40474;49.330;8.130;2022-08-14T07:52:08;35.90;36.70
54578;DHT22;40474;49.330;8.130;2022-08-14T07:54:39;36.80;35.90
54578;DHT22;40474;49.330;8.130;2022-08-14T07:57:08;37.80;34.90
54578;DHT22;40474;49.330;8.130;2022-08-14T07:59:47;38.50;34.40
54578;DHT22;40474;49.330;8.130;2022-08-14T08:02:15;38.80;33.60
54578;DHT22;40474;49.330;8.130;2022-08-14T08:04:47;38.70;33.00
54578;DHT22;40474;49.330;8.130;2022-08-14T08:07:15;38.70;32.80
54578;DHT22;40474;49.330;8.130;2022-08-14T08:09:42;38.90;32.60
54578;DHT22;40474;49.330;8.130;2022-08-14T08:12:11;39.20;32.80
54578;DHT22;40474;49.330;8.130;2022-08-14T08:14:41;39.60;32.00
54578;DHT22;40474;49.330;8.130;2022-08-14T08:17:27;39.70;32.30
54578;DHT22;40474;49.330;8.130;2022-08-14T08:20:03;38.90;31.90
54578;DHT22;40474;49.330;8.130;2022-08-14T08:22:34;39.50;32.10
54578;DHT22;40474;49.330;8.130;2022-08-14T08:25:03;39.40;31.90
54578;DHT22;40474;49.330;8.130;2022-08-14T08:27:39;39.60;31.50
54578;DHT22;40474;49.330;8.130;2022-08-14T08:30:10;39.30;31.50
54578;DHT22;40474;49.330;8.130;2022-08-14T08:32:41;39.30;32.00
54578;DHT22;40474;49.330;8.130;2022-08-14T08:35:17;39.70;31.70
54578;DHT22;40474;49.330;8.130;2022-08-14T08:37:47;39.70;31.20
54578;DHT22;40474;49.330;8.130;2022-08-14T08:40:27;40.20;31.60
54578;DHT22;40474;49.330;8.130;2022-08-14T08:42:57;41.10;30.20
54578;DHT22;40474;49.330;8.130;2022-08-14T08:45:24;41.60;30.10
54578;DHT22;40474;49.330;8.130;2022-08-14T08:47:53;40.90;29.80
54578;DHT22;40474;49.330;8.130;2022-08-14T08:50:25;41.20;30.10
54578;DHT22;40474;49.330;8.130;2022-08-14T08:52:57;41.00;30.10
54578;DHT22;40474;49.330;8.130;2022-08-14T08:55:32;40.70;30.40
54578;DHT22;40474;49.330;8.130;2022-08-14T08:58:01;40.50;30.00
54578;DHT22;40474;49.330;8.130;2022-08-14T09:00:31;41.20;30.00
54578;DHT22;40474;49.330;8.130;2022-08-14T09:03:12;40.60;30.00
54578;DHT22;40474;49.330;8.130;2022-08-14T09:05:48;41.30;29.80
54578;DHT22;40474;49.330;8.130;2022-08-14T09:08:20;41.20;30.00
54578;DHT22;40474;49.330;8.130;2022-08-14T09:10:56;41.00;29.30
54578;DHT22;40474;49.330;8.130;2022-08-14T09:13:25;40.50;29.90
54578;DHT22;40474;49.330;8.130;2022-08-14T09:15:55;40.80;30.20
54578;DHT22;40474;49.330;8.130;2022-08-14T09:18:23;41.40;29.30
54578;DHT22;40474;49.330;8.130;2022-08-14T09:20:51;42.00;28.90
54578;DHT22;40474;49.330;8.130;2022-08-14T09:23:23;42.00;28.70
54578;DHT22;40474;49.330;8.130;2022-08-14T09:26:00;41.60;28.60
54578;DHT22;40474;49.330;8.130;2022-08-14T09:28:30;41.50;29.00
54578;DHT22;40474;49.330;8.130;2022-08-14T09:30:59;42.50;28.80
54578;DHT22;40474;49.330;8.130;2022-08-14T09:33:46;42.90;28.20
54578;DHT22;40474;49.330;8.130;2022-08-14T09:36:26;42.60;28.20
54578;DHT22;40474;49.330;8.130;2022-08-14T09:41:29;41.60;29.00
54578;DHT22;40474;49.330;8.130;2022-08-14T09:46:57;42.00;28.60
54578;DHT22;40474;49.330;8.130;2022-08-14T09:49:30;42.40;28.60
54578;DHT22;40474;49.330;8.130;2022-08-14T09:52:09;42.60;28.60
54578;DHT22;40474;49.330;8.130;2022-08-14T09:54:55;43.10;28.30
54578;DHT22;40474;49.330;8.130;2022-08-14T09:57:24;43.70;27.70
54578;DHT22;40474;49.330;8.130;2022-08-14T09:59:54;43.90;27.60
54578;DHT22;40474;49.330;8.130;2022-08-14T10:02:22;44.00;27.70
54578;DHT22;40474;49.330;8.130;2022-08-14T10:05:49;44.00;27.50
54578;DHT22;40474;49.330;8.130;2022-08-14T10:07:47;43.70;27.30
54578;DHT22;40474;49.330;8.130;2022-08-14T10:10:28;42.90;27.50
54578;DHT22;40474;49.330;8.130;2022-08-14T10:13:00;42.90;28.10
54578;DHT22;40474;49.330;8.130;2022-08-14T10:15:28;43.40;27.70
54578;DHT22;40474;49.330;8.130;2022-08-14T10:20:35;43.30;26.90
54578;DHT22;40474;49.330;8.130;2022-08-14T10:23:22;42.40;27.10
54578;DHT22;40474;49.330;8.130;2022-08-14T10:26:02;42.90;27.90
54578;DHT22;40474;49.330;8.130;2022-08-14T10:28:40;43.60;27.50
54578;DHT22;40474;49.330;8.130;2022-08-14T10:31:28;44.10;27.00
54578;DHT22;40474;49.330;8.130;2022-08-14T10:34:11;44.10;26.90
54578;DHT22;40474;49.330;8.130;2022-08-14T10:36:41;44.40;26.60
54578;DHT22;40474;49.330;8.130;2022-08-14T10:39:16;44.80;27.10
54578;DHT22;40474;49.330;8.130;2022-08-14T10:41:44;44.30;26.80
54578;DHT22;40474;49.330;8.130;2022-08-14T10:44:16;44.20;26.50
54578;DHT22;40474;49.330;8.130;2022-08-14T10:46:50;45.00;27.00
54578;DHT22;40474;49.330;8.130;2022-08-14T10:49:38;45.30;26.20
54578;DHT22;40474;49.330;8.130;2022-08-14T10:52:10;44.40;25.00
54578;DHT22;40474;49.330;8.130;2022-08-14T10:54:43;44.80;25.50
54578;DHT22;40474;49.330;8.130;2022-08-14T10:57:19;44.50;25.10
54578;DHT22;40474;49.330;8.130;2022-08-14T10:59:50;43.70;26.20
54578;DHT22;40474;49.330;8.130;2022-08-14T11:02:18;44.10;25.30
54578;DHT22;40474;49.330;8.130;2022-08-14T11:07:35;44.30;25.90
54578;DHT22;40474;49.330;8.130;2022-08-14T11:10:06;44.30;25.00
54578;DHT22;40474;49.330;8.130;2022-08-14T11:12:41;44.30;26.50
54578;DHT22;40474;49.330;8.130;2022-08-14T11:15:33;44.00;26.10
54578;DHT22;40474;49.330;8.130;2022-08-14T11:17:59;43.70;26.10
54578;DHT22;40474;49.330;8.130;2022-08-14T11:20:27;44.10;25.30
54578;DHT22;40474;49.330;8.130;2022-08-14T11:22:57;43.80;25.60
54578;DHT22;40474;49.330;8.130;2022-08-14T11:25:25;44.30;25.50
54578;DHT22;40474;49.330;8.130;2022-08-14T11:28:10;43.90;25.20
54578;DHT22;40474;49.330;8.130;2022-08-14T11:30:43;43.90;25.50
54578;DHT22;40474;49.330;8.130;2022-08-14T11:33:22;44.00;25.40
54578;DHT22;40474;49.330;8.130;2022-08-14T11:35:49;44.40;26.20
54578;DHT22;40474;49.330;8.130;2022-08-14T11:38:16;44.80;25.10
54578;DHT22;40474;49.330;8.130;2022-08-14T11:40:47;44.60;24.70
54578;DHT22;40474;49.330;8.130;2022-08-14T11:43:14;43.50;25.20
54578;DHT22;40474;49.330;8.130;2022-08-14T11:45:43;43.70;25.60
54578;DHT22;40474;49.330;8.130;2022-08-14T11:48:20;43.80;24.90
54578;DHT22;40474;49.330;8.130;2022-08-14T11:51:11;43.70;25.70
54578;DHT22;40474;49.330;8.130;2022-08-14T11:53:39;44.00;25.60
54578;DHT22;40474;49.330;8.130;2022-08-14T11:56:08;44.90;24.80
54578;DHT22;40474;49.330;8.130;2022-08-14T11:58:36;45.00;24.60
54578;DHT22;40474;49.330;8.130;2022-08-14T12:01:05;44.80;24.40
54578;DHT22;40474;49.330;8.130;2022-08-14T12:03:39;44.30;25.00
54578;DHT22;40474;49.330;8.130;2022-08-14T12:06:22;44.30;25.20
54578;DHT22;40474;49.330;8.130;2022-08-14T12:09:04;44.20;25.10
54578;DHT22;40474;49.330;8.130;2022-08-14T12:11:39;44.20;25.30
54578;DHT22;40474;49.330;8.130;2022-08-14T12:14:09;43.90;27.00
54578;DHT22;40474;49.330;8.130;2022-08-14T12:16:58;43.40;24.70
54578;DHT22;40474;49.330;8.130;2022-08-14T12:19:24;43.60;27.10
54578;DHT22;40474;49.330;8.130;2022-08-14T12:21:51;44.00;24.90
54578;DHT22;40474;49.330;8.130;2022-08-14T12:24:19;44.10;26.40
54578;DHT22;40474;49.330;8.130;2022-08-14T12:27:02;44.00;24.80
54578;DHT22;40474;49.330;8.130;2022-08-14T12:29:28;43.50;24.90
54578;DHT22;40474;49.330;8.130;2022-08-14T12:31:58;43.40;25.40
54578;DHT22;40474;49.330;8.130;2022-08-14T12:34:30;43.00;25.00
54578;DHT22;40474;49.330;8.130;2022-08-14T12:37:01;42.90;25.60
54578;DHT22;40474;49.330;8.130;2022-08-14T12:39:31;42.80;25.20
54578;DHT22;40474;49.330;8.130;2022-08-14T12:42:06;43.10;25.40
54578;DHT22;40474;49.330;8.130;2022-08-14T12:44:34;43.50;25.10
54578;DHT22;40474;49.330;8.130;2022-08-14T12:49:31;43.40;25.50
54578;DHT22;40474;49.330;8.130;2022-08-14T12:52:00;43.10;25.40
54578;DHT22;40474;49.330;8.130;2022-08-14T12:54:27;42.60;27.00
54578;DHT22;40474;49.330;8.130;2022-08-14T12:57:02;41.80;26.00
54578;DHT22;40474;49.330;8.130;2022-08-14T12:59:31;41.60;26.40
54578;DHT22;40474;49.330;8.130;2022-08-14T13:02:17;41.30;26.40
54578;DHT22;40474;49.330;8.130;2022-08-14T13:04:47;41.10;26.20
54578;DHT22;40474;49.330;8.130;2022-08-14T13:07:16;41.10;26.20
54578;DHT22;40474;49.330;8.130;2022-08-14T13:09:42;41.20;25.40
54578;DHT22;40474;49.330;8.130;2022-08-14T13:12:12;41.00;25.50
54578;DHT22;40474;49.330;8.130;2022-08-14T13:15:00;40.60;26.70
54578;DHT22;40474;49.330;8.130;2022-08-14T13:17:41;40.90;27.70
54578;DHT22;40474;49.330;8.130;2022-08-14T13:20:09;41.10;25.40
54578;DHT22;40474;49.330;8.130;2022-08-14T13:22:52;40.90;25.80
54578;DHT22;40474;49.330;8.130;2022-08-14T13:25:23;40.80;25.60
54578;DHT22;40474;49.330;8.130;2022-08-14T13:27:55;40.60;25.90
54578;DHT22;40474;49.330;8.130;2022-08-14T13:30:25;40.50;25.10
54578;DHT22;40474;49.330;8.130;2022-08-14T13:32:52;40.10;25.80
54578;DHT22;40474;49.330;8.130;2022-08-14T13:35:23;39.90;29.10
54578;DHT22;40474;49.330;8.130;2022-08-14T13:37:51;40.00;25.80
54578;DHT22;40474;49.330;8.130;2022-08-14T13:40:20;40.00;25.30
54578;DHT22;40474;49.330;8.130;2022-08-14T13:42:52;40.00;28.00
54578;DHT22;40474;49.330;8.130;2022-08-14T13:45:20;39.80;26.10
54578;DHT22;40474;49.330;8.130;2022-08-14T13:47:59;39.40;25.80
54578;DHT22;40474;49.330;8.130;2022-08-14T13:50:27;39.30;26.30
54578;DHT22;40474;49.330;8.130;2022-08-14T13:52:53;39.00;29.70
54578;DHT22;40474;49.330;8.130;2022-08-14T13:55:26;38.80;29.40
54578;DHT22;40474;49.330;8.130;2022-08-14T13:57:56;38.50;27.10
54578;DHT22;40474;49.330;8.130;2022-08-14T14:00:35;38.50;26.80
54578;DHT22;40474;49.330;8.130;2022-08-14T14:03:21;38.40;28.50
54578;DHT22;40474;49.330;8.130;2022-08-14T14:05:48;38.10;29.60
54578;DHT22;40474;49.330;8.130;2022-08-14T14:08:20;38.00;26.80
54578;DHT22;40474;49.330;8.130;2022-08-14T14:11:08;37.80;28.00
54578;DHT22;40474;49.330;8.130;2022-08-14T14:13:35;37.50;29.50
54578;DHT22;40474;49.330;8.130;2022-08-14T14:16:10;37.00;30.70
54578;DHT22;40474;49.330;8.130;2022-08-14T14:18:50;36.60;28.70
54578;DHT22;40474;49.330;8.130;2022-08-14T14:21:23;36.40;28.00
54578;DHT22;40474;49.330;8.130;2022-08-14T14:23:54;36.20;28.20
54578;DHT22;40474;49.330;8.130;2022-08-14T14:26:22;36.10;28.50
54578;DHT22;40474;49.330;8.130;2022-08-14T14:28:51;35.90;30.50
54578;DHT22;40474;49.330;8.130;2022-08-14T14:31:23;35.60;30.00
54578;DHT22;40474;49.330;8.130;2022-08-14T14:33:59;35.60;29.20
54578;DHT22;40474;49.330;8.130;2022-08-14T14:36:38;35.50;30.00
54578;DHT22;40474;49.330;8.130;2022-08-14T14:39:09;35.30;32.80
54578;DHT22;40474;49.330;8.130;2022-08-14T14:41:37;35.00;30.10
54578;DHT22;40474;49.330;8.130;2022-08-14T14:44:10;34.80;32.90
54578;DHT22;40474;49.330;8.130;2022-08-14T14:46:42;34.60;29.10
54578;DHT22;40474;49.330;8.130;2022-08-14T14:49:19;34.60;28.70
54578;DHT22;40474;49.330;8.130;2022-08-14T14:51:47;34.30;29.00
54578;DHT22;40474;49.330;8.130;2022-08-14T14:54:19;34.20;32.80
54578;DHT22;40474;49.330;8.130;2022-08-14T14:57:03;34.20;28.70
54578;DHT22;40474;49.330;8.130;2022-08-14T14:59:36;34.20;29.00
54578;DHT22;40474;49.330;8.130;2022-08-14T15:02:04;34.10;30.00
54578;DHT22;40474;49.330;8.130;2022-08-14T15:04:35;34.00;30.20
54578;DHT22;40474;49.330;8.130;2022-08-14T15:07:06;33.90;34.30
54578;DHT22;40474;49.330;8.130;2022-08-14T15:09:33;33.80;31.10
54578;DHT22;40474;49.330;8.130;2022-08-14T15:12:02;33.70;29.90
54578;DHT22;40474;49.330;8.130;2022-08-14T15:14:42;33.60;29.70
54578;DHT22;40474;49.330;8.130;2022-08-14T15:17:23;33.40;34.50
54578;DHT22;40474;49.330;8.130;2022-08-14T15:19:54;33.40;31.30
54578;DHT22;40474;49.330;8.130;2022-08-14T15:22:22;33.30;29.80
54578;DHT22;40474;49.330;8.130;2022-08-14T15:24:50;33.30;32.30
54578;DHT22;40474;49.330;8.130;2022-08-14T15:27:17;33.40;30.00
54578;DHT22;40474;49.330;8.130;2022-08-14T15:29:52;33.40;31.00
54578;DHT22;40474;49.330;8.130;2022-08-14T15:32:19;33.30;29.20
54578;DHT22;40474;49.330;8.130;2022-08-14T15:34:49;33.30;29.00
54578;DHT22;40474;49.330;8.130;2022-08-14T15:37:18;33.30;29.30
54578;DHT22;40474;49.330;8.130;2022-08-14T15:39:49;33.10;29.50
54578;DHT22;40474;49.330;8.130;2022-08-14T15:42:18;33.00;32.30
54578;DHT22;40474;49.330;8.130;2022-08-14T15:44:46;33.00;29.40
54578;DHT22;40474;49.330;8.130;2022-08-14T15:47:24;33.10;30.00
54578;DHT22;40474;49.330;8.130;2022-08-14T15:49:54;32.90;35.30
54578;DHT22;40474;49.330;8.130;2022-08-14T15:52:24;32.90;31.70
54578;DHT22;40474;49.330;8.130;2022-08-14T15:55:00;32.90;33.50
54578;DHT22;40474;49.330;8.130;2022-08-14T15:57:29;32.80;35.60
54578;DHT22;40474;49.330;8.130;2022-08-14T15:59:57;32.80;32.10
54578;DHT22;40474;49.330;8.130;2022-08-14T16:03:03;32.80;35.60
54578;DHT22;40474;49.330;8.130;2022-08-14T16:05:34;32.60;35.60
54578;DHT22;40474;49.330;8.130;2022-08-14T16:08:07;32.60;36.20
54578;DHT22;40474;49.330;8.130;2022-08-14T16:10:54;32.60;35.40
54578;DHT22;40474;49.330;8.130;2022-08-14T16:13:21;32.50;34.20
54578;DHT22;40474;49.330;8.130;2022-08-14T16:18:57;32.40;35.90
54578;DHT22;40474;49.330;8.130;2022-08-14T16:21:25;32.40;34.60
54578;DHT22;40474;49.330;8.130;2022-08-14T16:23:58;32.40;35.80